Time;durP1;ratioP1;P1;durP2;ratioP2;P2;SDS_P1;SDS_P2;PMS_P1;PMS_P2;Temp;Humidity;BMP_temperature;BMP_pressure;BME280_temperature;BME280_humidity;BME280_pressure;Samples;Min_cycle;Max_cycle;Signal;HPM_P1;HPM_P2
2024/03/09 00:00:59;;;;;;;46.83;21.23;;;4.20;99.90;;;;;;5061865;28;20083;-75
2024/03/09 00:03:26;;;;;;;53.17;21.95;;;4.10;99.90;;;;;;5061418;28;20505;-75
2024/03/09 00:05:52;;;;;;;49.20;22.33;;;4.10;99.90;;;;;;5060359;28;20033;-74
2024/03/09 00:08:18;;;;;;;46.25;21.50;;;4.10;99.90;;;;;;5060939;28;20033;-75
2024/03/09 00:10:44;;;;;;;48.45;20.90;;;4.20;99.90;;;;;;5059685;28;20056;-72
2024/03/09 00:13:10;;;;;;;50.83;21.90;;;4.10;99.90;;;;;;5059165;28;20025;-74
2024/03/09 00:15:37;;;;;;;51.20;22.17;;;4.20;99.90;;;;;;5058992;28;20044;-75
2024/03/09 00:18:04;;;;;;;52.45;22.20;;;4.10;99.90;;;;;;5060819;28;20037;-73
2024/03/09 00:20:34;;;;;;;47.08;22.40;;;4.00;99.90;;;;;;5059527;28;20036;-74
2024/03/09 00:23:02;;;;;;;52.90;22.25;;;4.00;99.90;;;;;;5059997;28;20033;-75
2024/03/09 00:25:31;;;;;;;49.47;22.63;;;4.00;99.90;;;;;;5059939;28;20040;-75
2024/03/09 00:27:57;;;;;;;51.90;22.88;;;4.00;99.90;;;;;;5059770;28;20047;-74
2024/03/09 00:30:25;;;;;;;50.05;23.00;;;3.90;99.90;;;;;;5060073;28;20025;-76
2024/03/09 00:32:54;;;;;;;48.20;22.77;;;3.90;99.90;;;;;;5058458;28;20053;-74
2024/03/09 00:35:21;;;;;;;51.22;23.13;;;3.90;99.90;;;;;;5059338;28;20036;-74
2024/03/09 00:37:48;;;;;;;47.17;22.00;;;3.90;99.90;;;;;;5058285;28;20040;-77
2024/03/09 00:40:14;;;;;;;51.40;22.70;;;3.80;99.90;;;;;;5059074;28;20032;-74
2024/03/09 00:42:41;;;;;;;47.88;21.85;;;3.80;99.90;;;;;;5060740;28;21046;-74
2024/03/09 00:45:08;;;;;;;53.10;23.92;;;3.80;99.90;;;;;;5060631;28;20033;-76
2024/03/09 00:47:36;;;;;;;49.78;21.95;;;3.80;99.90;;;;;;5059866;28;20025;-75
2024/03/09 00:50:09;;;;;;;49.05;23.23;;;3.80;99.90;;;;;;5060745;28;20025;-74
2024/03/09 00:52:36;;;;;;;54.37;23.93;;;3.80;99.90;;;;;;5068091;28;20486;-77
2024/03/09 00:55:02;;;;;;;50.70;23.08;;;3.80;99.90;;;;;;5058316;28;20095;-74
2024/03/09 00:57:28;;;;;;;55.97;24.38;;;3.80;99.90;;;;;;5059987;28;20033;-74
2024/03/09 00:59:54;;;;;;;51.05;21.80;;;3.70;99.90;;;;;;5058821;28;20024;-75
2024/03/09 01:02:20;;;;;;;58.55;23.92;;;3.70;99.90;;;;;;5058891;28;20081;-76
2024/03/09 01:04:46;;;;;;;53.47;23.83;;;3.70;99.90;;;;;;5058968;28;20482;-74
2024/03/09 01:07:13;;;;;;;54.13;23.52;;;3.60;99.90;;;;;;5060609;28;20029;-74
2024/03/09 01:09:42;;;;;;;56.22;24.15;;;3.60;99.90;;;;;;5057434;28;20076;-75
2024/03/09 01:12:07;;;;;;;58.53;24.05;;;3.60;99.90;;;;;;5059094;28;20037;-75
2024/03/09 01:14:33;;;;;;;60.33;25.13;;;3.40;99.90;;;;;;5058474;28;20033;-76
2024/03/09 01:16:59;;;;;;;54.90;23.70;;;3.50;99.90;;;;;;5058802;28;20051;-75
2024/03/09 01:19:25;;;;;;;58.00;24.90;;;3.50;99.90;;;;;;5060802;28;20017;-76
2024/03/09 01:21:52;;;;;;;53.10;24.30;;;3.50;99.90;;;;;;5058258;28;20033;-73
2024/03/09 01:24:20;;;;;;;52.97;23.27;;;3.40;99.90;;;;;;5060402;28;20131;-74
2024/03/09 01:26:46;;;;;;;50.13;23.73;;;3.40;99.90;;;;;;5058915;28;20052;-74
2024/03/09 01:29:11;;;;;;;55.88;23.27;;;3.40;99.90;;;;;;5059032;28;20041;-74
2024/03/09 01:31:38;;;;;;;56.35;24.48;;;3.30;99.90;;;;;;5058595;28;20040;-75
2024/03/09 01:34:05;;;;;;;59.45;24.25;;;3.30;99.90;;;;;;5059282;28;20080;-75
2024/03/09 01:36:31;;;;;;;55.85;24.85;;;3.30;99.90;;;;;;5059230;28;20032;-75
2024/03/09 01:38:57;;;;;;;57.92;24.65;;;3.30;99.90;;;;;;5060479;28;20021;-75
2024/03/09 01:41:24;;;;;;;54.70;23.63;;;3.30;99.90;;;;;;5059508;28;20501;-75
2024/03/09 01:43:50;;;;;;;63.83;25.90;;;3.30;99.90;;;;;;5062887;28;20029;-75
2024/03/09 01:46:18;;;;;;;55.65;24.50;;;3.30;99.90;;;;;;5064419;28;20040;-74
2024/03/09 01:48:46;;;;;;;59.45;25.40;;;3.20;99.90;;;;;;5062923;28;20044;-75
2024/03/09 01:51:14;;;;;;;50.92;22.55;;;3.20;99.90;;;;;;5063862;28;20029;-76
2024/03/09 01:53:42;;;;;;;53.38;23.02;;;3.20;99.90;;;;;;5062101;28;20025;-74
2024/03/09 01:56:11;;;;;;;49.53;23.08;;;3.20;99.90;;;;;;5063841;28;20021;-77
2024/03/09 01:58:41;;;;;;;58.13;25.40;;;3.20;99.90;;;;;;5062244;28;20025;-74
2024/03/09 02:01:22;;;;;;;57.50;25.15;;;3.20;99.90;;;;;;5063768;28;20046;-73
2024/03/09 02:03:53;;;;;;;54.47;24.02;;;3.20;99.90;;;;;;5062578;28;20029;-75
2024/03/09 02:06:31;;;;;;;58.75;24.13;;;3.10;99.90;;;;;;5063244;28;20028;-74
2024/03/09 02:08:57;;;;;;;58.05;25.17;;;3.10;99.90;;;;;;5062584;28;20061;-74
2024/03/09 02:11:24;;;;;;;56.55;25.27;;;3.10;99.90;;;;;;5062375;28;20059;-74
2024/03/09 02:13:53;;;;;;;55.13;24.60;;;3.10;99.90;;;;;;5061309;28;20028;-74
2024/03/09 02:16:19;;;;;;;56.20;25.70;;;3.10;99.90;;;;;;5063521;28;20037;-74
2024/03/09 02:18:48;;;;;;;53.90;24.85;;;3.10;99.90;;;;;;5061442;28;20029;-75
2024/03/09 02:21:17;;;;;;;56.72;24.80;;;3.10;99.90;;;;;;5062255;28;20044;-75
2024/03/09 02:23:47;;;;;;;60.97;24.52;;;3.00;99.90;;;;;;5060709;28;20096;-76
2024/03/09 02:26:15;;;;;;;58.25;26.02;;;3.00;99.90;;;;;;5061696;28;20072;-74
2024/03/09 02:28:53;;;;;;;55.83;23.35;;;3.00;99.90;;;;;;5063390;28;20037;-74
2024/03/09 02:31:23;;;;;;;55.45;24.52;;;2.90;99.90;;;;;;5061738;28;20056;-73
2024/03/09 02:33:54;;;;;;;61.05;24.67;;;3.00;99.90;;;;;;5060573;28;20068;-76
2024/03/09 02:36:30;;;;;;;59.38;24.80;;;2.90;99.90;;;;;;5063050;28;20024;-74
2024/03/09 02:38:57;;;;;;;57.90;24.67;;;2.90;99.90;;;;;;5063003;28;20037;-74
2024/03/09 02:41:24;;;;;;;58.60;24.70;;;2.90;99.90;;;;;;5063270;28;20123;-74
2024/03/09 02:43:50;;;;;;;66.47;26.15;;;2.80;99.90;;;;;;5062288;28;20029;-74
2024/03/09 02:46:16;;;;;;;63.47;26.33;;;2.80;99.90;;;;;;5060179;28;20580;-73
2024/03/09 02:48:46;;;;;;;57.90;25.08;;;2.70;99.90;;;;;;5062865;28;20059;-74
2024/03/09 02:51:12;;;;;;;59.05;25.30;;;2.70;99.90;;;;;;5060451;28;20032;-74
2024/03/09 02:53:44;;;;;;;60.03;25.52;;;2.70;99.90;;;;;;5059364;28;20044;-75
2024/03/09 02:56:18;;;;;;;61.28;26.13;;;2.70;99.90;;;;;;5062367;28;20032;-76
2024/03/09 02:58:44;;;;;;;62.60;26.50;;;2.70;99.90;;;;;;5061788;28;20033;-74
2024/03/09 03:01:11;;;;;;;65.28;26.73;;;2.60;99.90;;;;;;5061561;28;20096;-76
2024/03/09 03:03:46;;;;;;;57.80;24.67;;;2.60;99.90;;;;;;5062465;28;20037;-74
2024/03/09 03:06:18;;;;;;;59.92;25.50;;;2.60;99.90;;;;;;5061058;28;20033;-76
2024/03/09 03:08:49;;;;;;;58.17;25.27;;;2.60;99.90;;;;;;5061173;28;20029;-74
2024/03/09 03:11:16;;;;;;;58.42;25.67;;;2.70;99.90;;;;;;5060836;28;20049;-73
2024/03/09 03:13:44;;;;;;;62.85;25.50;;;2.70;99.90;;;;;;5060783;28;20043;-73
2024/03/09 03:16:26;;;;;;;60.47;26.23;;;2.60;99.90;;;;;;5061488;28;20025;-75
2024/03/09 03:18:58;;;;;;;64.07;25.83;;;2.60;99.90;;;;;;5061157;28;20406;-74
2024/03/09 03:21:25;;;;;;;59.95;26.10;;;2.60;99.90;;;;;;5061746;28;21455;-74
2024/03/09 03:23:51;;;;;;;65.63;26.58;;;2.60;99.90;;;;;;5058899;28;20040;-75
2024/03/09 03:26:19;;;;;;;60.65;25.92;;;2.50;99.90;;;;;;5060405;28;20032;-74
2024/03/09 03:28:47;;;;;;;62.97;26.48;;;2.40;99.90;;;;;;5061254;28;20557;-73
2024/03/09 03:31:13;;;;;;;66.85;27.58;;;2.40;99.90;;;;;;5060394;28;20044;-74
2024/03/09 03:33:39;;;;;;;61.28;26.42;;;2.40;99.90;;;;;;5059593;28;20033;-75
2024/03/09 03:36:09;;;;;;;64.93;26.70;;;2.40;99.90;;;;;;5059941;28;20125;-74
2024/03/09 03:38:35;;;;;;;64.30;26.45;;;2.30;99.90;;;;;;5077254;28;20541;-73
2024/03/09 03:41:10;;;;;;;68.90;27.63;;;2.30;99.90;;;;;;5061714;28;20032;-75
2024/03/09 03:43:40;;;;;;;67.32;26.77;;;2.30;99.90;;;;;;5060439;28;20470;-74
2024/03/09 03:46:09;;;;;;;62.35;26.55;;;2.30;99.90;;;;;;5060260;28;20053;-74
2024/03/09 03:48:35;;;;;;;60.22;27.05;;;2.30;99.90;;;;;;5059694;28;20043;-74
2024/03/09 03:51:01;;;;;;;65.57;28.48;;;2.30;99.90;;;;;;5060888;28;20029;-76
2024/03/09 03:53:27;;;;;;;60.45;26.58;;;2.30;99.90;;;;;;5059930;28;20028;-73
2024/03/09 03:55:53;;;;;;;58.92;26.05;;;2.30;99.90;;;;;;5059352;28;20034;-75
2024/03/09 03:58:19;;;;;;;63.35;27.58;;;2.30;99.90;;;;;;5058967;28;20726;-74
2024/03/09 04:00:47;;;;;;;60.55;26.10;;;2.30;99.90;;;;;;5061045;28;20025;-75
2024/03/09 04:03:16;;;;;;;66.25;27.13;;;2.30;99.90;;;;;;5060048;28;20025;-75
2024/03/09 04:05:43;;;;;;;64.10;28.00;;;2.20;99.90;;;;;;5058091;28;20050;-75
2024/03/09 04:08:09;;;;;;;60.67;26.33;;;2.20;99.90;;;;;;5061017;28;20029;-75
2024/03/09 04:10:35;;;;;;;61.40;25.42;;;2.20;99.90;;;;;;5060446;28;20052;-75
2024/03/09 04:13:01;;;;;;;63.45;26.85;;;2.20;99.90;;;;;;5061129;28;20027;-75
2024/03/09 04:15:26;;;;;;;67.25;27.15;;;2.20;99.90;;;;;;5060575;28;20037;-74
2024/03/09 04:17:53;;;;;;;63.35;26.45;;;2.20;99.90;;;;;;5059259;28;20080;-74
2024/03/09 04:20:18;;;;;;;61.90;25.73;;;2.20;99.90;;;;;;5060612;28;20025;-76
2024/03/09 04:22:45;;;;;;;64.30;26.38;;;2.10;99.90;;;;;;5060601;28;20435;-74
2024/03/09 04:25:11;;;;;;;69.03;27.55;;;2.20;99.90;;;;;;5059761;28;20462;-76
2024/03/09 04:27:38;;;;;;;59.30;26.33;;;2.10;99.90;;;;;;5057188;28;20293;-78
2024/03/09 04:30:06;;;;;;;71.32;28.33;;;2.10;99.90;;;;;;5060359;28;20029;-74
2024/03/09 04:32:31;;;;;;;59.80;26.02;;;2.10;99.90;;;;;;5060104;28;20021;-74
2024/03/09 04:34:57;;;;;;;64.28;26.45;;;2.10;99.90;;;;;;5059860;28;20047;-75
2024/03/09 04:37:27;;;;;;;62.67;26.40;;;2.00;99.90;;;;;;5059422;28;20560;-75
2024/03/09 04:39:55;;;;;;;64.13;27.33;;;2.00;99.90;;;;;;5058380;28;20057;-76
2024/03/09 04:42:25;;;;;;;61.42;25.80;;;2.00;99.90;;;;;;5058783;28;20497;-76
2024/03/09 04:44:53;;;;;;;69.63;26.65;;;2.00;99.90;;;;;;5059885;28;20032;-76
2024/03/09 04:47:19;;;;;;;63.28;25.85;;;2.00;99.90;;;;;;5058684;28;20028;-74
2024/03/09 04:49:47;;;;;;;60.38;26.55;;;2.00;99.90;;;;;;5057373;28;20033;-74
2024/03/09 04:52:16;;;;;;;62.83;26.77;;;2.00;99.90;;;;;;5059293;28;20112;-76
2024/03/09 04:54:45;;;;;;;69.97;27.17;;;2.00;99.90;;;;;;5058959;28;20033;-75
2024/03/09 04:57:15;;;;;;;64.25;27.13;;;2.00;99.90;;;;;;5057824;28;20462;-75
2024/03/09 04:59:41;;;;;;;69.70;28.10;;;2.00;99.90;;;;;;5061772;28;20485;-76
2024/03/09 05:02:07;;;;;;;60.40;25.67;;;1.90;99.90;;;;;;5060455;28;20829;-73
2024/03/09 05:04:33;;;;;;;66.63;27.08;;;1.90;99.90;;;;;;5062105;28;20032;-74
2024/03/09 05:06:58;;;;;;;65.45;26.75;;;1.90;99.90;;;;;;5057335;28;20029;-75
2024/03/09 05:09:25;;;;;;;63.55;27.13;;;1.80;99.90;;;;;;5056118;28;20470;-74
2024/03/09 05:11:51;;;;;;;68.78;26.95;;;1.80;99.90;;;;;;5061953;28;20085;-75
2024/03/09 05:14:17;;;;;;;63.83;27.45;;;1.80;99.90;;;;;;5060345;28;20243;-73
2024/03/09 05:16:45;;;;;;;65.95;26.20;;;1.80;99.90;;;;;;5062200;28;20028;-74
2024/03/09 05:19:11;;;;;;;70.30;27.80;;;1.80;99.90;;;;;;5064437;28;20056;-73
2024/03/09 05:21:38;;;;;;;62.17;26.42;;;1.70;99.90;;;;;;5064366;28;20025;-73
2024/03/09 05:24:05;;;;;;;62.17;26.60;;;1.80;99.90;;;;;;5065464;28;20021;-74
2024/03/09 05:26:32;;;;;;;67.30;27.13;;;1.70;99.90;;;;;;5065443;28;20080;-73
2024/03/09 05:28:58;;;;;;;73.25;27.17;;;1.70;99.90;;;;;;5064302;28;20044;-73
2024/03/09 05:31:30;;;;;;;62.35;28.08;;;1.80;99.90;;;;;;5065402;28;20366;-73
2024/03/09 05:33:56;;;;;;;70.00;27.27;;;1.80;99.90;;;;;;5065094;28;20021;-74
2024/03/09 05:36:22;;;;;;;70.43;27.10;;;1.70;99.90;;;;;;5064963;28;20040;-73
2024/03/09 05:38:49;;;;;;;70.90;27.98;;;1.70;99.90;;;;;;5065414;28;20025;-73
2024/03/09 05:41:19;;;;;;;65.18;27.17;;;1.70;99.90;;;;;;5065146;28;20037;-73
2024/03/09 05:43:48;;;;;;;69.38;27.25;;;1.70;99.90;;;;;;5064456;28;20021;-72
2024/03/09 05:46:15;;;;;;;67.57;26.83;;;1.70;99.90;;;;;;5064926;28;20033;-73
2024/03/09 05:48:49;;;;;;;67.55;26.70;;;1.60;99.90;;;;;;5065112;28;20075;-73
2024/03/09 05:51:14;;;;;;;;;;;1.60;99.90;;;;;;5065883;28;20017;-73
2024/03/09 05:53:43;;;;;;;66.15;25.13;;;1.60;99.90;;;;;;5062666;28;19905;-74
2024/03/09 05:56:12;;;;;;;65.30;26.58;;;1.60;99.90;;;;;;5062455;28;20025;-73
2024/03/09 05:58:40;;;;;;;71.53;27.85;;;1.50;99.90;;;;;;5064075;28;20060;-75
2024/03/09 06:01:06;;;;;;;67.95;27.02;;;1.50;99.90;;;;;;5063855;28;20041;-74
2024/03/09 06:03:32;;;;;;;67.20;27.35;;;1.50;99.90;;;;;;5062749;28;20037;-74
2024/03/09 06:05:58;;;;;;;72.32;27.85;;;1.50;99.90;;;;;;5063572;28;20040;-74
2024/03/09 06:08:23;;;;;;;73.15;27.70;;;1.50;99.90;;;;;;5063484;28;20056;-73
2024/03/09 06:10:50;;;;;;;66.97;25.98;;;1.60;99.90;;;;;;5063015;28;20060;-73
2024/03/09 06:13:18;;;;;;;68.32;27.02;;;1.60;99.90;;;;;;5059626;28;20036;-73
2024/03/09 06:15:47;;;;;;;68.22;27.52;;;1.60;99.90;;;;;;5062100;28;20070;-73
2024/03/09 06:18:17;;;;;;;67.00;27.40;;;1.60;99.90;;;;;;5061034;28;20032;-73
2024/03/09 06:20:43;;;;;;;68.38;28.10;;;1.60;99.90;;;;;;5063047;28;20032;-73
2024/03/09 06:23:09;;;;;;;70.57;28.45;;;1.60;99.90;;;;;;5062252;28;20032;-73
2024/03/09 06:25:34;;;;;;;66.45;27.98;;;1.60;99.90;;;;;;5062712;28;21048;-72
2024/03/09 06:28:05;;;;;;;70.72;27.40;;;1.60;99.90;;;;;;5063678;28;20045;-73
2024/03/09 06:30:31;;;;;;;66.82;27.23;;;1.70;99.90;;;;;;5063789;28;20084;-72
2024/03/09 06:32:57;;;;;;;69.45;28.50;;;1.60;99.90;;;;;;5064161;28;20489;-73
2024/03/09 06:35:25;;;;;;;64.18;27.27;;;1.70;99.90;;;;;;5063023;28;20637;-73
2024/03/09 06:38:08;;;;;;;66.75;27.50;;;1.70;99.90;;;;;;5061701;28;20017;-73
2024/03/09 06:40:36;;;;;;;68.45;28.35;;;1.70;99.90;;;;;;5063141;28;20021;-72
2024/03/09 06:43:05;;;;;;;71.80;29.35;;;1.70;99.90;;;;;;5063602;28;20064;-72
2024/03/09 06:45:31;;;;;;;72.38;29.83;;;1.80;99.90;;;;;;5060971;28;20033;-72
2024/03/09 06:48:00;;;;;;;69.15;28.30;;;1.80;99.90;;;;;;5059383;28;20580;-73
2024/03/09 06:50:26;;;;;;;66.30;28.15;;;1.90;99.90;;;;;;5059914;28;20451;-73
2024/03/09 06:52:52;;;;;;;71.00;28.00;;;2.00;99.90;;;;;;5060487;28;20481;-73
2024/03/09 06:55:19;;;;;;;67.88;27.73;;;2.00;99.90;;;;;;5059815;28;20033;-73
2024/03/09 06:57:46;;;;;;;68.05;28.25;;;2.10;99.90;;;;;;5060485;28;20052;-73
2024/03/09 07:00:15;;;;;;;70.93;27.95;;;2.10;99.90;;;;;;5059105;28;20021;-73
2024/03/09 07:02:44;;;;;;;69.72;28.10;;;2.20;99.90;;;;;;5061010;28;20049;-73
2024/03/09 07:05:10;;;;;;;73.43;27.63;;;2.20;99.90;;;;;;5062457;28;20088;-73
2024/03/09 07:07:37;;;;;;;64.65;26.88;;;2.30;99.90;;;;;;5061514;28;20378;-73
2024/03/09 07:10:10;;;;;;;69.50;28.33;;;2.30;99.90;;;;;;5061122;28;20057;-73
2024/03/09 07:12:39;;;;;;;65.72;26.73;;;2.40;99.90;;;;;;5062807;28;20032;-73
2024/03/09 07:15:08;;;;;;;69.25;28.65;;;2.40;99.90;;;;;;5063378;28;20017;-73
2024/03/09 07:17:34;;;;;;;64.53;27.13;;;2.50;99.90;;;;;;5062124;28;20473;-73
2024/03/09 07:20:11;;;;;;;67.97;28.00;;;2.60;99.90;;;;;;5062215;28;20032;-72
2024/03/09 07:22:50;;;;;;;65.03;27.10;;;2.70;99.90;;;;;;5061395;28;20359;-73
2024/03/09 07:25:23;;;;;;;68.85;27.20;;;2.80;99.90;;;;;;5061959;28;20029;-72
2024/03/09 07:27:49;;;;;;;64.53;27.75;;;2.90;99.90;;;;;;5062253;28;20107;-72
2024/03/09 07:30:15;;;;;;;61.85;27.10;;;2.90;99.90;;;;;;5062492;28;20029;-72
2024/03/09 07:32:44;;;;;;;62.75;27.00;;;3.00;99.90;;;;;;5062214;28;20084;-73
2024/03/09 07:35:18;;;;;;;60.45;26.17;;;3.10;99.90;;;;;;5060733;28;20037;-72
2024/03/09 07:37:52;;;;;;;58.53;25.98;;;3.20;99.90;;;;;;5061327;28;20025;-72
2024/03/09 07:40:21;;;;;;;57.50;26.83;;;3.30;99.90;;;;;;5061279;28;20067;-72
2024/03/09 07:42:48;;;;;;;61.33;26.88;;;3.30;99.90;;;;;;5060748;28;20115;-72
2024/03/09 07:45:15;;;;;;;63.28;27.95;;;3.40;99.90;;;;;;5058874;28;20120;-72
2024/03/09 07:47:43;;;;;;;65.25;27.80;;;3.60;99.90;;;;;;5060411;28;20037;-72
2024/03/09 07:50:16;;;;;;;61.33;26.30;;;3.70;99.90;;;;;;5061927;28;20025;-72
2024/03/09 07:52:43;;;;;;;58.47;26.95;;;3.90;99.90;;;;;;5061495;28;20028;-72
2024/03/09 07:55:09;;;;;;;58.97;24.63;;;4.10;99.90;;;;;;5060241;28;20064;-72
2024/03/09 07:57:37;;;;;;;58.70;26.40;;;4.30;99.90;;;;;;5061793;28;20029;-72
2024/03/09 08:00:04;;;;;;;60.72;27.20;;;4.60;99.90;;;;;;5061816;28;20063;-73
2024/03/09 08:02:30;;;;;;;56.20;26.20;;;4.90;99.90;;;;;;5060377;28;20024;-72
2024/03/09 08:04:57;;;;;;;57.88;27.65;;;5.00;99.90;;;;;;5059789;28;20132;-72
2024/03/09 08:07:23;;;;;;;55.85;26.45;;;5.10;99.90;;;;;;5062143;28;20036;-72
2024/03/09 08:09:48;;;;;;;55.55;25.27;;;5.20;99.90;;;;;;5057853;28;20041;-73
2024/03/09 08:12:14;;;;;;;50.05;26.20;;;5.30;99.90;;;;;;5060911;28;20377;-73
2024/03/09 08:14:39;;;;;;;57.53;26.27;;;5.40;99.90;;;;;;5058209;28;20158;-74
2024/03/09 08:17:06;;;;;;;54.78;25.92;;;5.60;99.90;;;;;;5059746;28;20037;-72
2024/03/09 08:19:31;;;;;;;52.38;25.95;;;5.80;99.90;;;;;;5060885;28;20119;-72
2024/03/09 08:21:57;;;;;;;54.40;25.77;;;5.90;99.90;;;;;;5057563;28;20457;-72
2024/03/09 08:24:22;;;;;;;50.85;25.35;;;6.00;99.90;;;;;;5058652;28;20035;-71
2024/03/09 08:26:48;;;;;;;50.05;25.83;;;6.10;99.90;;;;;;5061734;28;20021;-72
2024/03/09 08:29:16;;;;;;;58.42;27.42;;;6.50;99.90;;;;;;5059244;28;20036;-72
2024/03/09 08:31:43;;;;;;;53.95;27.92;;;6.60;99.90;;;;;;5060370;28;20021;-72
2024/03/09 08:34:09;;;;;;;46.78;25.27;;;6.70;99.90;;;;;;5059117;28;20031;-72
2024/03/09 08:36:35;;;;;;;49.13;25.73;;;6.60;99.90;;;;;;5062224;28;20021;-72
2024/03/09 08:39:01;;;;;;;50.17;25.25;;;6.90;99.90;;;;;;5062080;28;20017;-72
2024/03/09 08:41:27;;;;;;;55.35;27.92;;;7.00;99.90;;;;;;5061926;28;20021;-72
2024/03/09 08:43:53;;;;;;;48.63;25.50;;;7.10;99.90;;;;;;5060821;28;20029;-71
2024/03/09 08:46:19;;;;;;;48.00;24.77;;;7.20;99.90;;;;;;5061651;28;20036;-72
2024/03/09 08:48:44;;;;;;;46.58;24.38;;;7.30;99.90;;;;;;5059288;28;20112;-73
2024/03/09 08:51:10;;;;;;;51.65;25.70;;;7.50;99.90;;;;;;5056595;28;20032;-72
2024/03/09 08:53:36;;;;;;;48.80;25.23;;;7.70;99.90;;;;;;5060386;28;20017;-72
2024/03/09 08:56:03;;;;;;;46.78;24.52;;;7.90;99.90;;;;;;5057561;28;20462;-73
2024/03/09 08:58:30;;;;;;;50.78;25.58;;;8.00;99.90;;;;;;5059254;28;20067;-73
2024/03/09 09:00:56;;;;;;;47.92;25.35;;;8.20;99.90;;;;;;5059947;28;20478;-73
2024/03/09 09:03:23;;;;;;;46.55;23.83;;;8.20;99.90;;;;;;5058948;28;20029;-72
2024/03/09 09:05:49;;;;;;;42.53;22.63;;;8.20;99.90;;;;;;5060320;28;20025;-72
2024/03/09 09:08:24;;;;;;;45.05;23.83;;;8.20;99.90;;;;;;5059620;28;20075;-73
2024/03/09 09:10:53;;;;;;;42.15;23.50;;;8.20;99.90;;;;;;5061325;28;20048;-72
2024/03/09 09:13:21;;;;;;;44.53;24.65;;;8.20;99.90;;;;;;5054801;28;20032;-72
2024/03/09 09:15:47;;;;;;;45.40;24.38;;;8.30;99.90;;;;;;5050012;28;20053;-71
2024/03/09 09:18:14;;;;;;;45.00;23.70;;;8.30;99.90;;;;;;5057998;28;20100;-72
2024/03/09 09:20:41;;;;;;;44.70;22.55;;;8.50;99.90;;;;;;5057615;28;20089;-74
2024/03/09 09:23:10;;;;;;;41.63;23.55;;;8.60;99.90;;;;;;5060717;28;20496;-72
2024/03/09 09:25:36;;;;;;;42.45;20.98;;;8.70;99.90;;;;;;5056049;28;20031;-73
2024/03/09 09:28:02;;;;;;;43.33;23.10;;;8.80;99.90;;;;;;5054902;28;20088;-73
2024/03/09 09:30:27;;;;;;;44.72;23.17;;;8.80;99.90;;;;;;5060239;28;20044;-74
2024/03/09 09:32:53;;;;;;;43.22;23.33;;;8.80;99.90;;;;;;5056034;28;20014;-72
2024/03/09 09:35:20;;;;;;;44.67;24.23;;;8.90;99.90;;;;;;5060094;28;21046;-73
2024/03/09 09:37:46;;;;;;;46.50;23.38;;;9.00;99.90;;;;;;5061118;28;20021;-74
2024/03/09 09:40:13;;;;;;;41.40;23.40;;;9.20;99.90;;;;;;5060446;28;20083;-72
2024/03/09 09:42:38;;;;;;;40.30;21.80;;;9.30;99.90;;;;;;5061186;28;20028;-75
2024/03/09 09:45:05;;;;;;;41.75;23.42;;;9.40;99.90;;;;;;5060870;28;20021;-74
2024/03/09 09:47:32;;;;;;;43.85;22.58;;;9.50;99.90;;;;;;5045733;28;20054;-74
2024/03/09 09:49:59;;;;;;;38.70;20.52;;;9.50;99.90;;;;;;5056879;28;20086;-73
2024/03/09 09:52:24;;;;;;;40.13;21.75;;;9.50;99.90;;;;;;5058643;28;20040;-74
2024/03/09 09:54:58;;;;;;;39.05;21.90;;;9.50;99.90;;;;;;5054315;28;20052;-74
2024/03/09 09:57:28;;;;;;;42.47;23.27;;;9.60;99.90;;;;;;5056727;28;20440;-73
2024/03/09 09:59:54;;;;;;;40.35;22.10;;;9.70;99.90;;;;;;5060374;28;20025;-74
2024/03/09 10:02:22;;;;;;;44.13;23.45;;;9.90;99.90;;;;;;5060471;28;20025;-72
2024/03/09 10:04:50;;;;;;;38.38;22.02;;;10.00;99.90;;;;;;5064155;28;20020;-71
2024/03/09 10:07:16;;;;;;;39.00;21.33;;;10.10;99.90;;;;;;5063492;28;20127;-72
2024/03/09 10:09:41;;;;;;;36.97;20.35;;;10.10;99.90;;;;;;5064524;28;20076;-74
2024/03/09 10:12:19;;;;;;;42.97;23.25;;;10.10;99.90;;;;;;5062933;28;20112;-73
2024/03/09 10:14:45;;;;;;;41.70;21.35;;;10.20;99.90;;;;;;5063839;28;20644;-71
2024/03/09 10:17:11;;;;;;;42.85;20.70;;;10.30;99.90;;;;;;5063532;28;20033;-73
2024/03/09 10:19:37;;;;;;;37.72;22.10;;;10.40;99.90;;;;;;5063407;28;20041;-73
2024/03/09 10:22:03;;;;;;;36.92;22.48;;;10.60;99.90;;;;;;5064672;28;20044;-72
2024/03/09 10:24:29;;;;;;;37.53;22.23;;;10.80;99.90;;;;;;5063529;28;20036;-71
2024/03/09 10:27:03;;;;;;;40.50;22.38;;;10.90;99.90;;;;;;5063812;28;20060;-72
2024/03/09 10:29:28;;;;;;;34.60;18.92;;;11.10;99.90;;;;;;5063897;28;20136;-73
2024/03/09 10:31:55;;;;;;;37.05;21.50;;;11.30;99.90;;;;;;5062787;28;20036;-71
2024/03/09 10:34:28;;;;;;;38.78;22.05;;;11.40;99.90;;;;;;5055142;28;20017;-72
2024/03/09 10:36:55;;;;;;;38.72;18.50;;;11.50;99.90;;;;;;5062509;28;20071;-72
2024/03/09 10:39:21;;;;;;;38.30;21.52;;;11.70;99.90;;;;;;5060701;28;20096;-74
2024/03/09 10:41:53;;;;;;;36.97;21.25;;;11.90;99.90;;;;;;5063112;28;20041;-73
2024/03/09 10:44:19;;;;;;;31.52;17.92;;;12.00;99.90;;;;;;5064008;28;20056;-74
2024/03/09 10:46:50;;;;;;;37.30;20.52;;;12.00;99.90;;;;;;5064080;28;20382;-74
2024/03/09 10:49:20;;;;;;;37.58;19.80;;;12.00;99.90;;;;;;5063976;28;20132;-72
2024/03/09 10:51:50;;;;;;;35.33;21.08;;;12.00;99.90;;;;;;5062051;28;20028;-73
2024/03/09 10:54:33;;;;;;;39.08;21.08;;;11.90;99.90;;;;;;5063715;28;20096;-72
2024/03/09 10:57:03;;;;;;;35.78;21.45;;;11.90;99.90;;;;;;5063968;28;20064;-72
2024/03/09 10:59:30;;;;;;;33.33;20.38;;;12.10;99.90;;;;;;5063267;28;20029;-75
2024/03/09 11:01:56;;;;;;;37.38;20.75;;;12.30;99.90;;;;;;5062041;28;20028;-75
2024/03/09 11:04:24;;;;;;;31.38;19.15;;;12.50;99.90;;;;;;5062032;28;20025;-73
2024/03/09 11:06:50;;;;;;;34.28;17.83;;;12.60;99.90;;;;;;5057843;28;20025;-74
2024/03/09 11:09:19;;;;;;;34.33;20.33;;;12.80;99.90;;;;;;5042963;28;20062;-71
2024/03/09 11:11:47;;;;;;;31.95;20.10;;;12.70;99.90;;;;;;5059251;28;20025;-72
2024/03/09 11:14:15;;;;;;;31.88;20.10;;;13.00;99.90;;;;;;5057132;28;20024;-72
2024/03/09 11:16:41;;;;;;;37.22;21.05;;;13.00;99.90;;;;;;5061171;28;20429;-74
2024/03/09 11:19:13;;;;;;;33.55;21.70;;;13.10;99.90;;;;;;5058296;28;20044;-74
2024/03/09 11:21:43;;;;;;;32.95;20.55;;;13.10;99.90;;;;;;5060872;28;20088;-73
2024/03/09 11:24:13;;;;;;;35.13;20.27;;;13.20;99.90;;;;;;5060263;28;20033;-73
2024/03/09 11:26:50;;;;;;;33.00;19.42;;;13.30;99.90;;;;;;5061076;28;20059;-74
2024/03/09 11:29:43;;;;;;;30.58;20.67;;;13.40;99.90;;;;;;5059308;28;20064;-74
2024/03/09 11:32:12;;;;;;;34.60;21.83;;;13.50;99.90;;;;;;5059396;28;20029;-73
2024/03/09 11:34:41;;;;;;;34.35;22.05;;;13.50;99.90;;;;;;5061083;28;20047;-76
2024/03/09 11:37:13;;;;;;;37.38;23.10;;;13.50;99.90;;;;;;5062128;28;20089;-74
2024/03/09 11:39:39;;;;;;;36.22;22.65;;;13.40;99.90;;;;;;5061030;28;20040;-75
2024/03/09 11:42:12;;;;;;;34.15;21.73;;;13.50;99.90;;;;;;5060965;28;20033;-74
2024/03/09 11:44:39;;;;;;;32.03;21.45;;;13.50;99.90;;;;;;5058982;28;20061;-73
2024/03/09 11:47:06;;;;;;;34.78;21.33;;;13.40;99.90;;;;;;5059891;28;20025;-74
2024/03/09 11:49:39;;;;;;;33.47;21.60;;;13.30;99.90;;;;;;5060808;28;20047;-72
2024/03/09 11:52:11;;;;;;;30.58;20.70;;;13.50;99.90;;;;;;5057418;28;20039;-72
2024/03/09 11:54:38;;;;;;;33.85;21.95;;;13.60;99.90;;;;;;5058298;28;21415;-73
2024/03/09 11:57:04;;;;;;;28.05;17.35;;;13.40;99.90;;;;;;5059169;28;20029;-75
2024/03/09 11:59:30;;;;;;;34.42;21.52;;;13.20;99.90;;;;;;5059588;28;20083;-72
2024/03/09 12:02:00;;;;;;;37.55;22.40;;;13.10;99.90;;;;;;5059388;28;20025;-74
2024/03/09 12:04:31;;;;;;;35.08;22.00;;;13.00;99.90;;;;;;5060231;28;20025;-76
2024/03/09 12:06:59;;;;;;;36.13;21.13;;;13.10;99.90;;;;;;5061540;28;20032;-76
2024/03/09 12:09:24;;;;;;;40.08;22.67;;;13.50;99.90;;;;;;5059504;28;20060;-72
2024/03/09 12:11:50;;;;;;;37.55;22.95;;;13.90;99.90;;;;;;5061110;28;20055;-72
2024/03/09 12:14:16;;;;;;;34.47;21.77;;;14.00;99.90;;;;;;5061993;28;20028;-73
2024/03/09 12:16:43;;;;;;;41.63;23.33;;;14.30;99.90;;;;;;5062165;28;20066;-74
2024/03/09 12:19:12;;;;;;;37.17;22.85;;;14.70;99.90;;;;;;5062429;28;20025;-73
2024/03/09 12:21:38;;;;;;;37.25;23.52;;;14.90;99.90;;;;;;5061751;28;20222;-75
2024/03/09 12:24:06;;;;;;;34.63;19.88;;;14.90;99.90;;;;;;5061153;28;20096;-75
2024/03/09 12:26:33;;;;;;;37.30;23.50;;;15.00;99.90;;;;;;5062381;28;20025;-74
2024/03/09 12:29:04;;;;;;;36.17;24.55;;;15.30;99.90;;;;;;5061740;28;20033;-73
2024/03/09 12:31:31;;;;;;;35.10;23.35;;;15.20;99.90;;;;;;5061974;28;20029;-71
2024/03/09 12:33:58;;;;;;;37.28;24.73;;;14.90;99.90;;;;;;5060954;28;20071;-71
2024/03/09 12:36:24;;;;;;;36.63;23.63;;;14.70;99.90;;;;;;5062033;28;20016;-74
2024/03/09 12:38:50;;;;;;;35.70;23.05;;;14.80;99.90;;;;;;5062442;28;20013;-74